createdAt,value
2018-05-21T00:01:11.650Z,102298.05
2018-05-21T00:03:39.936Z,102299.81
2018-05-21T00:06:09.188Z,102291.55
2018-05-21T00:08:38.489Z,102292.71
2018-05-21T00:11:06.776Z,102284.41
2018-05-21T00:13:35.860Z,102287.34
2018-05-21T00:16:05.629Z,102285.08
2018-05-21T00:18:35.602Z,102286.80
2018-05-21T00:21:05.167Z,102286.73
2018-05-21T00:23:34.321Z,102280.87
2018-05-21T00:26:06.940Z,102277.08
2018-05-21T00:28:38.041Z,102282.31
2018-05-21T00:31:06.415Z,102277.48
2018-05-21T00:33:34.709Z,102278.37
2018-05-21T00:36:04.498Z,102277.91
2018-05-21T00:38:32.811Z,102280.77
2018-05-21T00:41:01.109Z,102278.34
2018-05-21T00:43:30.301Z,102275.29
2018-05-21T00:45:59.465Z,102279.41
2018-05-21T00:48:27.799Z,102276.00
2018-05-21T00:50:58.725Z,102275.63
2018-05-21T00:53:28.088Z,102278.04
2018-05-21T00:55:56.866Z,102270.81
2018-05-21T00:58:25.158Z,102269.78
2018-05-21T01:00:54.990Z,102274.38
2018-05-21T01:03:23.954Z,102271.42
2018-05-21T01:05:52.750Z,102269.95
2018-05-21T01:08:21.892Z,102271.05
2018-05-21T01:10:51.882Z,102268.78
2018-05-21T01:13:21.394Z,102265.34
2018-05-21T01:15:51.119Z,102262.91
2018-05-21T01:18:20.191Z,102259.65
2018-05-21T01:20:48.561Z,102258.34
2018-05-21T01:23:16.865Z,102255.23
2018-05-21T01:25:46.428Z,102257.48
2018-05-21T01:28:14.650Z,102250.78
2018-05-21T01:30:43.322Z,102253.09
2018-05-21T01:33:11.774Z,102251.60
2018-05-21T01:35:41.679Z,102252.34
2018-05-21T01:38:10.083Z,102253.52
2018-05-21T01:40:39.391Z,102244.38
2018-05-21T01:43:09.598Z,102249.22
2018-05-21T01:45:37.895Z,102252.92
2018-05-21T01:48:06.199Z,102249.55
2018-05-21T01:50:35.298Z,102254.08
2018-05-21T01:53:04.641Z,102248.78
2018-05-21T01:55:34.787Z,102246.30
2018-05-21T01:58:03.726Z,102242.03
2018-05-21T02:00:32.835Z,102246.39
2018-05-21T02:03:01.139Z,102242.50
2018-05-21T02:05:29.849Z,102236.23
2018-05-21T02:07:58.183Z,102240.33
2018-05-21T02:10:26.469Z,102245.61
2018-05-21T02:12:54.735Z,102241.55
2018-05-21T02:15:23.238Z,102239.91
2018-05-21T02:17:52.712Z,102239.42
2018-05-21T02:20:22.861Z,102242.58
2018-05-21T02:22:51.490Z,102240.57
2018-05-21T02:25:20.294Z,102238.87
2018-05-21T02:27:48.581Z,102245.38
2018-05-21T02:30:17.761Z,102240.33
2018-05-21T02:32:46.653Z,102244.08
2018-05-21T02:35:16.442Z,102240.73
2018-05-21T02:37:45.247Z,102241.80
2018-05-21T02:40:14.408Z,102240.27
2018-05-21T02:42:42.718Z,102240.73
2018-05-21T02:45:11.687Z,102237.63
2018-05-21T02:47:40.497Z,102238.17
2018-05-21T02:50:08.877Z,102242.52
2018-05-21T02:52:38.141Z,102234.79
2018-05-21T02:55:06.454Z,102235.89
2018-05-21T02:57:34.867Z,102236.18
2018-05-21T03:00:03.362Z,102230.98
2018-05-21T03:02:33.134Z,102229.63
2018-05-21T03:05:01.439Z,102234.30
2018-05-21T03:07:30.918Z,102222.73
2018-05-21T03:09:59.226Z,102224.97
2018-05-21T03:12:27.985Z,102222.20
2018-05-21T03:14:57.001Z,102218.45
2018-05-21T03:17:25.387Z,102223.62
2018-05-21T03:19:55.272Z,102216.08
2018-05-21T03:22:25.046Z,102217.86
2018-05-21T03:24:53.603Z,102214.86
2018-05-21T03:27:22.662Z,102207.64
2018-05-21T03:29:50.969Z,102209.06
2018-05-21T03:32:19.320Z,102203.91
2018-05-21T03:34:47.719Z,102205.74
2018-05-21T03:37:16.875Z,102208.99
2018-05-21T03:39:45.175Z,102212.34
2018-05-21T03:42:14.058Z,102212.45
2018-05-21T03:44:42.658Z,102208.10
2018-05-21T03:47:12.181Z,102214.08
2018-05-21T03:49:41.853Z,102208.17
2018-05-21T03:52:10.160Z,102210.20
2018-05-21T03:54:38.533Z,102213.58
2018-05-21T03:57:07.738Z,102211.59
2018-05-21T03:59:53.837Z,102207.30
2018-05-21T04:02:39.974Z,102205.22
2018-05-21T04:05:09.022Z,102202.50
2018-05-21T04:07:38.236Z,102201.75
2018-05-21T04:10:06.903Z,102200.92
2018-05-21T04:12:35.179Z,102203.39
2018-05-21T04:15:03.685Z,102207.81
2018-05-21T04:17:31.959Z,102208.55
2018-05-21T04:20:00.868Z,102210.70
2018-05-21T04:22:30.300Z,102208.23
2018-05-21T04:24:59.519Z,102214.22
2018-05-21T04:27:28.243Z,102217.33
2018-05-21T04:29:57.350Z,102213.89
2018-05-21T04:32:26.378Z,102216.78
2018-05-21T04:34:54.756Z,102216.02
2018-05-21T04:37:23.285Z,102213.71
2018-05-21T04:39:52.052Z,102219.13
2018-05-21T04:42:20.763Z,102216.77
2018-05-21T04:44:49.234Z,102214.54
2018-05-21T04:47:18.249Z,102219.14
2018-05-21T04:49:46.837Z,102218.46
2018-05-21T04:52:15.143Z,102216.45
2018-05-21T04:54:45.553Z,102217.33
2018-05-21T04:57:14.758Z,102226.19
2018-05-21T04:59:43.178Z,102219.58
2018-05-21T05:02:12.843Z,102213.94
2018-05-21T05:04:41.514Z,102214.19
2018-05-21T05:07:11.379Z,102218.23
2018-05-21T05:09:39.669Z,102214.33
2018-05-21T05:12:07.978Z,102210.73
2018-05-21T05:14:36.377Z,102215.84
2018-05-21T05:17:04.743Z,102219.27
2018-05-21T05:19:33.897Z,102213.77
2018-05-21T05:22:02.314Z,102213.17
2018-05-21T05:24:31.357Z,102217.27
2018-05-21T05:27:00.505Z,102212.34
2018-05-21T05:29:29.675Z,102210.11
2018-05-21T05:31:58.413Z,102202.94
2018-05-21T05:34:27.121Z,102208.72
2018-05-21T05:36:56.220Z,102205.66
2018-05-21T05:39:25.314Z,102209.16
2018-05-21T05:41:54.451Z,102201.84
2018-05-21T05:44:23.240Z,102202.45
2018-05-21T05:46:52.344Z,102196.89
2018-05-21T05:49:21.188Z,102196.20
2018-05-21T05:51:50.307Z,102193.05
2018-05-21T05:54:19.401Z,102191.79
2018-05-21T05:56:48.531Z,102195.94
2018-05-21T05:59:17.862Z,102197.36
2018-05-21T06:01:46.449Z,102197.21
2018-05-21T06:04:14.917Z,102183.29
2018-05-21T06:06:43.206Z,102191.42
2018-05-21T06:09:11.961Z,102180.78
2018-05-21T06:11:40.373Z,102181.59
2018-05-21T06:14:09.205Z,102183.36
2018-05-21T06:16:39.740Z,102183.33
2018-05-21T06:19:08.508Z,102183.92
2018-05-21T06:21:37.648Z,102182.84
2018-05-21T06:24:05.970Z,102181.57
2018-05-21T06:26:35.079Z,102183.41
2018-05-21T06:29:04.140Z,102178.55
2018-05-21T06:31:32.936Z,102179.94
2018-05-21T06:34:01.296Z,102180.50
2018-05-21T06:36:30.115Z,102181.23
2018-05-21T06:38:58.946Z,102181.65
2018-05-21T06:41:28.543Z,102181.25
2018-05-21T06:43:57.706Z,102182.16
2018-05-21T06:46:26.293Z,102181.81
2018-05-21T06:48:55.297Z,102173.76
2018-05-21T06:51:24.353Z,102175.02
2018-05-21T06:53:52.670Z,102173.35
2018-05-21T06:56:21.854Z,102169.34
2018-05-21T06:58:51.111Z,102167.30
2018-05-21T07:01:20.094Z,102164.47
2018-05-21T07:03:50.022Z,102170.59
2018-05-21T07:06:19.715Z,102166.57
2018-05-21T07:08:49.590Z,102169.53
2018-05-21T07:11:18.374Z,102161.34
2018-05-21T07:13:46.681Z,102163.98
2018-05-21T07:16:15.590Z,102158.59
2018-05-21T07:18:44.675Z,102157.36
2018-05-21T07:21:14.733Z,102144.38
2018-05-21T07:23:43.054Z,102143.97
2018-05-21T07:26:11.374Z,102144.05
2018-05-21T07:28:39.907Z,102147.45
2018-05-21T07:31:08.210Z,102136.14
2018-05-21T07:33:36.988Z,102140.31
2018-05-21T07:36:05.306Z,102136.56
2018-05-21T07:38:34.569Z,102130.25
2018-05-21T07:41:02.881Z,102131.94
2018-05-21T07:43:32.009Z,102124.84
2018-05-21T07:46:00.302Z,102128.20
2018-05-21T07:48:28.655Z,102124.84
2018-05-21T07:50:56.974Z,102123.19
2018-05-21T07:53:25.285Z,102127.39
2018-05-21T07:55:54.384Z,102120.66
2018-05-21T07:58:23.457Z,102121.06
2018-05-21T08:00:51.790Z,102119.77
2018-05-21T08:03:20.114Z,102119.37
2018-05-21T08:05:48.493Z,102118.89
2018-05-21T08:08:16.837Z,102108.73
2018-05-21T08:10:45.184Z,102114.23
2018-05-21T08:13:13.531Z,102110.87
2018-05-21T08:15:42.026Z,102106.59
2018-05-21T08:18:11.239Z,102092.67
2018-05-21T08:20:40.318Z,102105.31
2018-05-21T08:23:08.626Z,102090.54
2018-05-21T08:25:37.838Z,102096.87
2018-05-21T08:28:06.139Z,102091.22
2018-05-21T08:30:34.708Z,102072.29
2018-05-21T08:33:03.044Z,102076.88
2018-05-21T08:35:32.131Z,102076.78
2018-05-21T08:38:00.758Z,102068.92
2018-05-21T08:40:29.575Z,102068.60
2018-05-21T08:42:58.425Z,102074.89
2018-05-21T08:45:26.858Z,102066.73
2018-05-21T08:47:55.952Z,102061.20
2018-05-21T08:50:24.398Z,102065.45
2018-05-21T08:52:52.799Z,102060.39
2018-05-21T08:55:21.135Z,102066.60
2018-05-21T08:57:50.224Z,102060.22
2018-05-21T09:00:19.303Z,102053.83
2018-05-21T09:02:47.701Z,102051.98
2018-05-21T09:05:16.521Z,102048.08
2018-05-21T09:07:45.087Z,102033.50
2018-05-21T09:10:15.318Z,102030.83
2018-05-21T09:12:43.613Z,102027.13
2018-05-21T09:15:12.070Z,102012.91
2018-05-21T09:17:41.597Z,102015.48
2018-05-21T09:20:09.907Z,102014.02
2018-05-21T09:22:38.540Z,102018.58
2018-05-21T09:25:10.637Z,102011.02
2018-05-21T09:27:38.933Z,102012.02
2018-05-21T09:30:07.318Z,102012.44
2018-05-21T09:32:35.677Z,102003.80
2018-05-21T09:35:05.589Z,102003.14
2018-05-21T09:37:34.647Z,102004.55
2018-05-21T09:40:03.897Z,101999.28
2018-05-21T09:42:32.180Z,102001.44
2018-05-21T09:45:00.463Z,101992.09
2018-05-21T09:47:29.879Z,101985.18
2018-05-21T09:49:58.949Z,101984.95
2018-05-21T09:52:27.829Z,101985.59
2018-05-21T09:54:57.058Z,101987.01
2018-05-21T09:57:25.353Z,101975.52
2018-05-21T09:59:54.404Z,101984.79
2018-05-21T10:02:23.088Z,101972.41
2018-05-21T10:04:51.398Z,101977.05
2018-05-21T10:07:19.708Z,101959.90
2018-05-21T10:09:49.500Z,101963.34
2018-05-21T10:12:18.003Z,101961.55
2018-05-21T10:14:47.109Z,101957.27
2018-05-21T10:17:16.268Z,101949.28
2018-05-21T10:19:44.563Z,101953.08
2018-05-21T10:22:14.149Z,101936.62
2018-05-21T10:24:42.824Z,101934.51
2018-05-21T10:27:11.602Z,101937.19
2018-05-21T10:29:40.781Z,101938.09
2018-05-21T10:32:09.989Z,101931.97
2018-05-21T10:34:38.292Z,101929.75
2018-05-21T10:37:06.697Z,101927.19
2018-05-21T10:39:35.640Z,101920.19
2018-05-21T10:42:04.066Z,101914.77
2018-05-21T10:44:33.344Z,101910.89
2018-05-21T10:47:02.329Z,101913.67
2018-05-21T10:49:30.631Z,101915.17
2018-05-21T10:51:59.599Z,101909.08
2018-05-21T10:54:28.199Z,101909.40
2018-05-21T10:56:56.509Z,101892.58
2018-05-21T10:59:25.579Z,101901.13
2018-05-21T11:01:53.962Z,101896.60
2018-05-21T11:04:22.298Z,101892.52
2018-05-21T11:06:51.217Z,101891.53
2018-05-21T11:09:19.543Z,101890.22
2018-05-21T11:11:47.899Z,101876.69
2018-05-21T11:14:16.323Z,101881.47
2018-05-21T11:16:46.254Z,101874.61
2018-05-21T11:19:14.950Z,101882.72
2018-05-21T11:21:44.521Z,101864.45
2018-05-21T11:24:14.193Z,101867.72
2018-05-21T11:26:42.499Z,101865.13
2018-05-21T11:29:12.368Z,101851.48
2018-05-21T11:31:42.311Z,101860.63
2018-05-21T11:34:10.893Z,101852.83
2018-05-21T11:36:40.118Z,101846.56
2018-05-21T11:39:08.461Z,101841.52
2018-05-21T11:41:36.840Z,101831.27
2018-05-21T11:44:05.446Z,101833.99
2018-05-21T11:46:33.749Z,101822.97
2018-05-21T11:49:03.147Z,101834.48
2018-05-21T11:51:31.457Z,101828.58
2018-05-21T11:54:00.333Z,101817.69
2018-05-21T11:56:29.592Z,101823.98
2018-05-21T11:58:58.399Z,101807.49
2018-05-21T12:01:26.790Z,101808.17
2018-05-21T12:03:55.852Z,101812.55
2018-05-21T12:06:24.251Z,101800.09
2018-05-21T12:08:53.032Z,101795.65
2018-05-21T12:11:22.710Z,101800.47
2018-05-21T12:13:51.330Z,101799.13
2018-05-21T12:16:20.515Z,101793.45
2018-05-21T12:18:48.968Z,101791.90
2018-05-21T12:21:17.280Z,101782.80
2018-05-21T12:23:45.659Z,101774.80
2018-05-21T12:26:14.041Z,101779.36
2018-05-21T12:28:42.432Z,101763.69
2018-05-21T12:31:10.962Z,101762.62
2018-05-21T12:33:40.202Z,101750.78
2018-05-21T12:36:08.538Z,101752.74
2018-05-21T12:38:37.921Z,101743.34
2018-05-21T12:41:07.813Z,101748.58
2018-05-21T12:43:36.174Z,101747.26
2018-05-21T12:46:04.461Z,101736.19
2018-05-21T12:48:32.762Z,101736.95
2018-05-21T12:51:01.952Z,101740.91
2018-05-21T12:53:31.253Z,101726.78
2018-05-21T12:55:59.738Z,101732.67
2018-05-21T12:58:30.254Z,101723.14
2018-05-21T13:00:58.951Z,101718.53
2018-05-21T13:03:28.639Z,101712.86
2018-05-21T13:05:57.474Z,101697.80
2018-05-21T13:08:27.256Z,101716.30
2018-05-21T13:10:56.692Z,101708.46
2018-05-21T13:13:26.579Z,101705.58
2018-05-21T13:15:54.955Z,101711.50
2018-05-21T13:18:24.286Z,101706.03
2018-05-21T13:20:53.334Z,101699.73
2018-05-21T13:23:21.963Z,101704.22
2018-05-21T13:25:51.423Z,101701.42
2018-05-21T13:28:21.351Z,101695.28
2018-05-21T13:30:50.042Z,101676.52
2018-05-21T13:33:18.922Z,101673.20
2018-05-21T13:35:47.389Z,101673.78
2018-05-21T13:38:16.365Z,101683.20
2018-05-21T13:40:44.864Z,101674.64
2018-05-21T13:43:13.734Z,101665.89
2018-05-21T13:45:42.094Z,101662.27
2018-05-21T13:48:11.076Z,101661.73
2018-05-21T13:50:39.406Z,101659.52
2018-05-21T13:53:07.707Z,101650.95
2018-05-21T13:55:36.037Z,101657.45
2018-05-21T13:58:06.100Z,101655.45
2018-05-21T14:00:35.700Z,101650.63
2018-05-21T14:03:04.154Z,101649.10
2018-05-21T14:05:33.845Z,101629.24
2018-05-21T14:08:02.911Z,101636.66
2018-05-21T14:10:31.250Z,101622.67
2018-05-21T14:12:59.561Z,101643.83
2018-05-21T14:15:28.620Z,101634.89
2018-05-21T14:17:56.906Z,101636.34
2018-05-21T14:20:25.610Z,101630.95
2018-05-21T14:22:55.108Z,101621.00
2018-05-21T14:25:23.440Z,101615.34
2018-05-21T14:27:52.362Z,101623.97
2018-05-21T14:30:21.609Z,101616.42
2018-05-21T14:32:50.755Z,101615.60
2018-05-21T14:35:20.302Z,101623.77
2018-05-21T14:37:48.621Z,101606.87
2018-05-21T14:40:17.104Z,101614.53
2018-05-21T14:42:45.581Z,101611.89
2018-05-21T14:45:14.502Z,101592.05
2018-05-21T14:47:43.404Z,101600.14
2018-05-21T14:50:11.850Z,101594.69
2018-05-21T14:52:40.771Z,101588.25
2018-05-21T14:55:09.095Z,101594.91
2018-05-21T14:57:37.411Z,101590.34
2018-05-21T15:00:06.470Z,101578.03
2018-05-21T15:02:34.811Z,101584.31
2018-05-21T15:05:04.480Z,101578.73
2018-05-21T15:07:34.082Z,101578.80
2018-05-21T15:10:03.300Z,101569.64
2018-05-21T15:12:33.887Z,101579.02
2018-05-21T15:15:04.491Z,101571.79
2018-05-21T15:17:32.913Z,101572.72
2018-05-21T15:20:02.681Z,101564.38
2018-05-21T15:22:30.976Z,101569.55
2018-05-21T15:24:59.336Z,101557.53
2018-05-21T15:27:28.957Z,101557.73
2018-05-21T15:29:57.847Z,101559.83
2018-05-21T15:32:27.636Z,101555.36
2018-05-21T15:34:56.032Z,101551.72
2018-05-21T15:37:24.314Z,101553.83
2018-05-21T15:39:52.934Z,101538.35
2018-05-21T15:42:21.642Z,101538.67
2018-05-21T15:44:51.616Z,101542.91
2018-05-21T15:47:20.014Z,101541.98
2018-05-21T15:49:48.323Z,101527.30
2018-05-21T15:52:16.628Z,101537.67
2018-05-21T15:54:45.754Z,101528.76
2018-05-21T15:57:14.937Z,101519.94
2018-05-21T15:59:43.354Z,101531.45
2018-05-21T16:02:11.666Z,101525.88
2018-05-21T16:04:40.239Z,101522.12
2018-05-21T16:07:08.549Z,101524.94
2018-05-21T16:09:39.086Z,101526.33
2018-05-21T16:12:07.430Z,101527.19
2018-05-21T16:14:35.764Z,101525.32
2018-05-21T16:17:04.140Z,101525.91
2018-05-21T16:19:32.463Z,101524.06
2018-05-21T16:22:00.797Z,101521.59
2018-05-21T16:24:29.104Z,101516.92
2018-05-21T16:26:57.409Z,101521.56
2018-05-21T16:29:26.333Z,101521.02
2018-05-21T16:31:55.485Z,101518.09
2018-05-21T16:34:24.318Z,101512.93
2018-05-21T16:36:52.753Z,101516.13
2018-05-21T16:39:22.591Z,101514.23
2018-05-21T16:41:52.343Z,101508.44
2018-05-21T16:44:22.226Z,101513.44
2018-05-21T16:46:52.211Z,101505.06
2018-05-21T16:49:21.598Z,101508.72
2018-05-21T16:51:49.904Z,101510.52
2018-05-21T16:54:18.265Z,101510.89
2018-05-21T16:56:46.555Z,101511.75
2018-05-21T16:59:15.705Z,101506.33
2018-05-21T17:01:45.144Z,101511.68
2018-05-21T17:04:14.237Z,101509.39
2018-05-21T17:06:43.214Z,101501.61
2018-05-21T17:09:12.331Z,101513.47
2018-05-21T17:11:40.637Z,101509.47
2018-05-21T17:14:08.939Z,101512.83
2018-05-21T17:16:38.019Z,101515.66
2018-05-21T17:19:07.934Z,101513.02
2018-05-21T17:21:37.016Z,101513.61
2018-05-21T17:24:05.758Z,101517.97
2018-05-21T17:26:34.535Z,101514.45
2018-05-21T17:29:03.170Z,101514.53
2018-05-21T17:31:32.306Z,101514.18
2018-05-21T17:34:02.613Z,101515.55
2018-05-21T17:36:31.982Z,101518.31
2018-05-21T17:39:00.282Z,101525.91
2018-05-21T17:41:30.425Z,101529.12
2018-05-21T17:43:59.513Z,101525.16
2018-05-21T17:46:28.602Z,101528.81
2018-05-21T17:48:57.865Z,101521.41
2018-05-21T17:51:27.022Z,101522.00
2018-05-21T17:53:56.107Z,101521.13
2018-05-21T17:56:24.416Z,101516.17
2018-05-21T17:58:53.216Z,101522.47
2018-05-21T18:01:23.009Z,101516.47
2018-05-21T18:03:52.070Z,101514.85
2018-05-21T18:06:21.216Z,101511.47
2018-05-21T18:08:50.317Z,101515.78
2018-05-21T18:11:19.546Z,101518.11
2018-05-21T18:13:47.873Z,101515.33
2018-05-21T18:16:17.353Z,101518.16
2018-05-21T18:18:47.085Z,101513.86
2018-05-21T18:21:15.374Z,101523.62
2018-05-21T18:23:44.634Z,101513.45
2018-05-21T18:26:13.249Z,101511.16
2018-05-21T18:28:44.879Z,101518.27
2018-05-21T18:31:14.680Z,101516.95
2018-05-21T18:33:42.976Z,101510.67
2018-05-21T18:36:12.861Z,101512.67
2018-05-21T18:38:41.603Z,101512.77
2018-05-21T18:41:10.717Z,101510.55
2018-05-21T18:43:39.645Z,101511.46
2018-05-21T18:46:08.035Z,101508.69
2018-05-21T18:48:36.707Z,101507.95
2018-05-21T18:51:05.074Z,101511.12
2018-05-21T18:53:34.814Z,101506.05
2018-05-21T18:56:03.514Z,101510.98
2018-05-21T18:58:32.150Z,101511.77
2018-05-21T19:01:01.325Z,101513.51
2018-05-21T19:03:30.484Z,101517.94
2018-05-21T19:05:59.377Z,101520.25
2018-05-21T19:08:27.951Z,101525.61
2018-05-21T19:10:57.896Z,101526.37
2018-05-21T19:13:28.601Z,101524.05
2018-05-21T19:15:57.605Z,101524.83
2018-05-21T19:18:26.304Z,101534.36
2018-05-21T19:20:54.913Z,101527.31
2018-05-21T19:23:24.613Z,101522.66
2018-05-21T19:25:53.700Z,101528.90
2018-05-21T19:28:22.391Z,101522.82
2018-05-21T19:30:51.455Z,101529.06
2018-05-21T19:33:19.754Z,101529.64
2018-05-21T19:35:48.637Z,101532.20
2018-05-21T19:38:17.758Z,101522.16
2018-05-21T19:40:46.088Z,101523.48
2018-05-21T19:43:14.700Z,101524.74
2018-05-21T19:45:43.782Z,101524.80
2018-05-21T19:48:12.188Z,101527.23
2018-05-21T19:50:40.627Z,101531.19
2018-05-21T19:53:08.924Z,101533.31
2018-05-21T19:55:37.266Z,101533.46
2018-05-21T19:58:06.804Z,101530.52
2018-05-21T20:00:35.497Z,101536.05
2018-05-21T20:03:03.998Z,101536.52
2018-05-21T20:05:33.192Z,101531.98
2018-05-21T20:08:02.243Z,101540.36
2018-05-21T20:10:30.682Z,101541.31
2018-05-21T20:12:59.891Z,101542.98
2018-05-21T20:15:29.937Z,101546.38
2018-05-21T20:17:58.881Z,101540.98
2018-05-21T20:20:43.141Z,101535.95
2018-05-21T20:23:12.964Z,101541.91
2018-05-21T20:25:41.883Z,101540.66
2018-05-21T20:28:10.965Z,101543.22
2018-05-21T20:30:39.258Z,101539.84
2018-05-21T20:33:08.405Z,101539.88
2018-05-21T20:35:37.608Z,101544.98
2018-05-21T20:38:06.449Z,101542.88
2018-05-21T20:40:35.558Z,101537.41
2018-05-21T20:43:03.903Z,101537.45
2018-05-21T20:45:32.962Z,101544.19
2018-05-21T20:48:01.291Z,101543.36
2018-05-21T20:50:30.563Z,101540.03
2018-05-21T20:52:59.417Z,101540.02
2018-05-21T20:55:27.736Z,101540.46
2018-05-21T20:57:56.104Z,101535.43
2018-05-21T21:00:24.404Z,101537.54
2018-05-21T21:02:53.342Z,101539.63
2018-05-21T21:05:22.888Z,101539.64
2018-05-21T21:07:51.194Z,101531.27
2018-05-21T21:10:20.264Z,101535.04
2018-05-21T21:12:48.973Z,101532.53
2018-05-21T21:15:18.059Z,101531.68
2018-05-21T21:17:46.360Z,101530.42
2018-05-21T21:20:15.457Z,101531.70
2018-05-21T21:22:44.524Z,101534.60
2018-05-21T21:25:12.817Z,101535.03
2018-05-21T21:27:42.098Z,101533.36
2018-05-21T21:30:10.382Z,101535.45
2018-05-21T21:32:38.725Z,101531.27
2018-05-21T21:35:07.880Z,101532.95
2018-05-21T21:37:36.957Z,101536.73
2018-05-21T21:40:05.270Z,101532.53
2018-05-21T21:42:34.641Z,101532.11
2018-05-21T21:45:02.935Z,101534.19
2018-05-21T21:47:32.065Z,101526.66
2018-05-21T21:50:01.097Z,101521.20
2018-05-21T21:52:29.975Z,101520.38
2018-05-21T21:54:58.372Z,101521.20
2018-05-21T21:57:26.747Z,101523.28
2018-05-21T21:59:55.079Z,101519.95
2018-05-21T22:02:24.350Z,101522.89
2018-05-21T22:04:53.746Z,101517.45
2018-05-21T22:07:22.917Z,101517.44
2018-05-21T22:09:52.072Z,101517.00
2018-05-21T22:12:21.958Z,101522.88
2018-05-21T22:14:51.561Z,101519.93
2018-05-21T22:17:19.867Z,101519.08
2018-05-21T22:19:49.058Z,101520.36
2018-05-21T22:22:18.876Z,101514.48
2018-05-21T22:24:47.963Z,101521.59
2018-05-21T22:27:17.130Z,101516.14
2018-05-21T22:29:45.425Z,101508.17
2018-05-21T22:32:13.779Z,101513.20
2018-05-21T22:34:42.311Z,101511.10
2018-05-21T22:37:11.959Z,101505.98
2018-05-21T22:39:40.287Z,101505.20
2018-05-21T22:42:08.596Z,101504.36
2018-05-21T22:44:42.806Z,101509.38
2018-05-21T22:47:11.918Z,101504.36
2018-05-21T22:49:41.058Z,101503.88
2018-05-21T22:52:09.416Z,101504.73
2018-05-21T22:54:37.763Z,101496.34
2018-05-21T22:57:06.141Z,101498.92
2018-05-21T22:59:34.797Z,101500.50
2018-05-21T23:02:03.770Z,101493.80
2018-05-21T23:04:32.140Z,101490.42
2018-05-21T23:07:01.071Z,101486.17
2018-05-21T23:09:30.199Z,101485.42
2018-05-21T23:11:58.784Z,101483.73
2018-05-21T23:14:28.441Z,101480.75
2018-05-21T23:16:56.790Z,101478.67
2018-05-21T23:19:25.139Z,101476.14
2018-05-21T23:21:53.529Z,101476.58
2018-05-21T23:24:22.488Z,101472.41
2018-05-21T23:26:51.295Z,101473.61
2018-05-21T23:29:20.159Z,101471.98
2018-05-21T23:31:48.578Z,101464.05
2018-05-21T23:34:17.647Z,101466.46
2018-05-21T23:36:46.751Z,101465.20
2018-05-21T23:39:15.414Z,101458.13
2018-05-21T23:41:44.389Z,101461.89
2018-05-21T23:44:12.677Z,101455.61
2018-05-21T23:46:41.095Z,101458.09
2018-05-21T23:49:10.171Z,101453.48
2018-05-21T23:51:38.542Z,101451.68
2018-05-21T23:54:07.533Z,101453.80
2018-05-21T23:56:36.144Z,101456.33
2018-05-21T23:59:04.489Z,101453.36
